sensor_id;sensor_type;location;lat;lon;timestamp;temperature;humidity
18091;DHT22;9172;49.948;9.208;2023-05-14T00:00:16;12.30;99.90
18091;DHT22;9172;49.948;9.208;2023-05-14T00:02:45;12.30;99.90
18091;DHT22;9172;49.948;9.208;2023-05-14T00:05:14;12.30;99.90
18091;DHT22;9172;49.948;9.208;2023-05-14T00:07:44;12.20;99.90
18091;DHT22;9172;49.948;9.208;2023-05-14T00:10:14;12.10;99.90
18091;DHT22;9172;49.948;9.208;2023-05-14T00:12:44;12.10;99.90
18091;DHT22;9172;49.948;9.208;2023-05-14T00:15:12;12.10;99.90
18091;DHT22;9172;49.948;9.208;2023-05-14T00:17:42;12.00;99.90
18091;DHT22;9172;49.948;9.208;2023-05-14T00:20:12;12.00;99.90
18091;DHT22;9172;49.948;9.208;2023-05-14T00:22:40;12.00;99.90
18091;DHT22;9172;49.948;9.208;2023-05-14T00:25:09;12.00;99.90
18091;DHT22;9172;49.948;9.208;2023-05-14T00:27:38;11.90;99.90
18091;DHT22;9172;49.948;9.208;2023-05-14T00:30:08;11.90;99.90
18091;DHT22;9172;49.948;9.208;2023-05-14T00:32:37;11.90;99.90
18091;DHT22;9172;49.948;9.208;2023-05-14T00:35:06;11.90;99.90
18091;DHT22;9172;49.948;9.208;2023-05-14T00:37:37;11.80;99.90
18091;DHT22;9172;49.948;9.208;2023-05-14T00:40:10;11.80;99.90
18091;DHT22;9172;49.948;9.208;2023-05-14T00:42:39;11.80;99.90
18091;DHT22;9172;49.948;9.208;2023-05-14T00:45:09;11.70;99.90
18091;DHT22;9172;49.948;9.208;2023-05-14T00:47:39;11.70;99.90
18091;DHT22;9172;49.948;9.208;2023-05-14T00:50:10;11.60;99.90
18091;DHT22;9172;49.948;9.208;2023-05-14T00:52:40;11.60;99.90
18091;DHT22;9172;49.948;9.208;2023-05-14T00:55:10;11.60;99.90
18091;DHT22;9172;49.948;9.208;2023-05-14T00:57:41;11.50;99.90
18091;DHT22;9172;49.948;9.208;2023-05-14T01:00:13;11.50;99.90
18091;DHT22;9172;49.948;9.208;2023-05-14T01:02:41;11.50;99.90
18091;DHT22;9172;49.948;9.208;2023-05-14T01:05:09;11.40;99.90
18091;DHT22;9172;49.948;9.208;2023-05-14T01:07:44;11.40;99.90
18091;DHT22;9172;49.948;9.208;2023-05-14T01:10:14;11.40;99.90
18091;DHT22;9172;49.948;9.208;2023-05-14T01:13:01;11.30;99.90
18091;DHT22;9172;49.948;9.208;2023-05-14T01:15:20;11.30;99.90
18091;DHT22;9172;49.948;9.208;2023-05-14T01:17:52;11.20;99.90
18091;DHT22;9172;49.948;9.208;2023-05-14T01:20:21;11.20;99.90
18091;DHT22;9172;49.948;9.208;2023-05-14T01:22:50;11.20;99.90
18091;DHT22;9172;49.948;9.208;2023-05-14T01:25:19;11.20;99.90
18091;DHT22;9172;49.948;9.208;2023-05-14T01:27:51;11.20;99.90
18091;DHT22;9172;49.948;9.208;2023-05-14T01:30:22;11.20;99.90
18091;DHT22;9172;49.948;9.208;2023-05-14T01:32:55;11.20;99.90
18091;DHT22;9172;49.948;9.208;2023-05-14T01:35:26;11.30;99.90
18091;DHT22;9172;49.948;9.208;2023-05-14T01:37:58;11.20;99.90
18091;DHT22;9172;49.948;9.208;2023-05-14T01:40:28;11.20;99.90
18091;DHT22;9172;49.948;9.208;2023-05-14T01:42:59;11.20;99.90
18091;DHT22;9172;49.948;9.208;2023-05-14T01:45:28;11.20;99.90
18091;DHT22;9172;49.948;9.208;2023-05-14T01:47:57;11.20;99.90
18091;DHT22;9172;49.948;9.208;2023-05-14T01:50:27;11.10;99.90
18091;DHT22;9172;49.948;9.208;2023-05-14T01:52:55;11.10;99.90
18091;DHT22;9172;49.948;9.208;2023-05-14T01:55:24;11.00;99.90
18091;DHT22;9172;49.948;9.208;2023-05-14T01:57:53;11.00;99.90
18091;DHT22;9172;49.948;9.208;2023-05-14T02:00:23;11.00;99.90
18091;DHT22;9172;49.948;9.208;2023-05-14T02:02:52;10.90;99.90
18091;DHT22;9172;49.948;9.208;2023-05-14T02:05:21;10.90;99.90
18091;DHT22;9172;49.948;9.208;2023-05-14T02:07:49;10.90;99.90
18091;DHT22;9172;49.948;9.208;2023-05-14T02:10:18;10.90;99.90
18091;DHT22;9172;49.948;9.208;2023-05-14T02:12:47;10.90;99.90
18091;DHT22;9172;49.948;9.208;2023-05-14T02:15:16;10.90;99.90
18091;DHT22;9172;49.948;9.208;2023-05-14T02:17:45;10.90;99.90
18091;DHT22;9172;49.948;9.208;2023-05-14T02:20:14;10.90;99.90
18091;DHT22;9172;49.948;9.208;2023-05-14T02:22:44;10.90;99.90
18091;DHT22;9172;49.948;9.208;2023-05-14T02:25:13;10.80;99.90
18091;DHT22;9172;49.948;9.208;2023-05-14T02:27:44;10.80;99.90
18091;DHT22;9172;49.948;9.208;2023-05-14T02:30:13;10.80;99.90
18091;DHT22;9172;49.948;9.208;2023-05-14T02:32:41;10.80;99.90
18091;DHT22;9172;49.948;9.208;2023-05-14T02:35:10;10.80;99.90
18091;DHT22;9172;49.948;9.208;2023-05-14T02:37:39;10.70;99.90
18091;DHT22;9172;49.948;9.208;2023-05-14T02:40:11;10.70;99.90
18091;DHT22;9172;49.948;9.208;2023-05-14T02:42:41;10.70;99.90
18091;DHT22;9172;49.948;9.208;2023-05-14T02:45:10;10.70;99.90
18091;DHT22;9172;49.948;9.208;2023-05-14T02:47:40;10.70;99.90
18091;DHT22;9172;49.948;9.208;2023-05-14T02:50:10;10.70;99.90
18091;DHT22;9172;49.948;9.208;2023-05-14T02:52:39;10.70;99.90
18091;DHT22;9172;49.948;9.208;2023-05-14T02:55:09;10.70;99.90
18091;DHT22;9172;49.948;9.208;2023-05-14T02:57:38;10.70;99.90
18091;DHT22;9172;49.948;9.208;2023-05-14T03:00:10;10.70;99.90
18091;DHT22;9172;49.948;9.208;2023-05-14T03:02:38;10.70;99.90
18091;DHT22;9172;49.948;9.208;2023-05-14T03:05:09;10.70;99.90
18091;DHT22;9172;49.948;9.208;2023-05-14T03:07:38;10.70;99.90
18091;DHT22;9172;49.948;9.208;2023-05-14T03:10:08;10.70;99.90
18091;DHT22;9172;49.948;9.208;2023-05-14T03:12:37;10.80;99.90
18091;DHT22;9172;49.948;9.208;2023-05-14T03:15:07;10.70;99.90
18091;DHT22;9172;49.948;9.208;2023-05-14T03:17:36;10.70;99.90
18091;DHT22;9172;49.948;9.208;2023-05-14T03:20:07;10.70;99.90
18091;DHT22;9172;49.948;9.208;2023-05-14T03:22:37;10.70;99.90
18091;DHT22;9172;49.948;9.208;2023-05-14T03:25:06;10.70;99.90
18091;DHT22;9172;49.948;9.208;2023-05-14T03:27:35;10.70;99.90
18091;DHT22;9172;49.948;9.208;2023-05-14T03:30:10;10.60;99.90
18091;DHT22;9172;49.948;9.208;2023-05-14T03:32:38;10.60;99.90
18091;DHT22;9172;49.948;9.208;2023-05-14T03:35:08;10.60;99.90
18091;DHT22;9172;49.948;9.208;2023-05-14T03:37:38;10.60;99.90
18091;DHT22;9172;49.948;9.208;2023-05-14T03:40:09;10.60;99.90
18091;DHT22;9172;49.948;9.208;2023-05-14T03:42:37;10.60;99.90
18091;DHT22;9172;49.948;9.208;2023-05-14T03:45:09;10.50;99.90
18091;DHT22;9172;49.948;9.208;2023-05-14T03:47:38;10.50;99.90
18091;DHT22;9172;49.948;9.208;2023-05-14T03:50:08;10.40;99.90
18091;DHT22;9172;49.948;9.208;2023-05-14T03:52:38;10.40;99.90
18091;DHT22;9172;49.948;9.208;2023-05-14T03:55:08;10.40;99.90
18091;DHT22;9172;49.948;9.208;2023-05-14T03:57:39;10.30;99.90
18091;DHT22;9172;49.948;9.208;2023-05-14T04:00:12;10.30;99.90
18091;DHT22;9172;49.948;9.208;2023-05-14T04:02:41;10.20;99.90
18091;DHT22;9172;49.948;9.208;2023-05-14T04:05:10;10.20;99.90
18091;DHT22;9172;49.948;9.208;2023-05-14T04:07:39;10.20;99.90
18091;DHT22;9172;49.948;9.208;2023-05-14T04:10:09;10.20;99.90
18091;DHT22;9172;49.948;9.208;2023-05-14T04:12:38;10.20;99.90
18091;DHT22;9172;49.948;9.208;2023-05-14T04:15:09;10.20;99.90
18091;DHT22;9172;49.948;9.208;2023-05-14T04:17:38;10.20;99.90
18091;DHT22;9172;49.948;9.208;2023-05-14T04:20:08;10.20;99.90
18091;DHT22;9172;49.948;9.208;2023-05-14T04:22:38;10.20;99.90
18091;DHT22;9172;49.948;9.208;2023-05-14T04:25:08;10.20;99.90
18091;DHT22;9172;49.948;9.208;2023-05-14T04:27:38;10.20;99.90
18091;DHT22;9172;49.948;9.208;2023-05-14T04:30:09;10.20;99.90
18091;DHT22;9172;49.948;9.208;2023-05-14T04:32:39;10.20;99.90
18091;DHT22;9172;49.948;9.208;2023-05-14T04:35:09;10.10;99.90
18091;DHT22;9172;49.948;9.208;2023-05-14T04:37:39;10.10;99.90
18091;DHT22;9172;49.948;9.208;2023-05-14T04:40:09;10.10;99.90
18091;DHT22;9172;49.948;9.208;2023-05-14T04:42:39;10.10;99.90
18091;DHT22;9172;49.948;9.208;2023-05-14T04:45:09;10.20;99.90
18091;DHT22;9172;49.948;9.208;2023-05-14T04:47:39;10.20;99.90
18091;DHT22;9172;49.948;9.208;2023-05-14T04:50:09;10.10;99.90
18091;DHT22;9172;49.948;9.208;2023-05-14T04:52:38;10.20;99.90
18091;DHT22;9172;49.948;9.208;2023-05-14T04:55:09;10.30;99.90
18091;DHT22;9172;49.948;9.208;2023-05-14T04:57:38;10.30;99.90
18091;DHT22;9172;49.948;9.208;2023-05-14T05:00:10;10.40;99.90
18091;DHT22;9172;49.948;9.208;2023-05-14T05:02:40;10.40;99.90
18091;DHT22;9172;49.948;9.208;2023-05-14T05:05:10;10.50;99.90
18091;DHT22;9172;49.948;9.208;2023-05-14T05:07:39;10.50;99.90
18091;DHT22;9172;49.948;9.208;2023-05-14T05:10:09;10.60;99.90
18091;DHT22;9172;49.948;9.208;2023-05-14T05:12:38;10.70;99.90
18091;DHT22;9172;49.948;9.208;2023-05-14T05:15:10;10.70;99.90
18091;DHT22;9172;49.948;9.208;2023-05-14T05:17:39;10.80;99.90
18091;DHT22;9172;49.948;9.208;2023-05-14T05:20:10;10.90;99.90
18091;DHT22;9172;49.948;9.208;2023-05-14T05:22:39;11.00;99.90
18091;DHT22;9172;49.948;9.208;2023-05-14T05:25:08;11.10;99.90
18091;DHT22;9172;49.948;9.208;2023-05-14T05:30:16;11.20;99.90
18091;DHT22;9172;49.948;9.208;2023-05-14T05:32:44;11.30;99.90
18091;DHT22;9172;49.948;9.208;2023-05-14T05:35:14;11.30;99.90
18091;DHT22;9172;49.948;9.208;2023-05-14T05:37:43;11.40;99.90
18091;DHT22;9172;49.948;9.208;2023-05-14T05:40:12;11.40;99.90
18091;DHT22;9172;49.948;9.208;2023-05-14T05:42:41;11.40;99.90
18091;DHT22;9172;49.948;9.208;2023-05-14T05:45:10;11.40;99.90
18091;DHT22;9172;49.948;9.208;2023-05-14T05:50:15;11.50;99.90
18091;DHT22;9172;49.948;9.208;2023-05-14T05:52:44;11.50;99.90
18091;DHT22;9172;49.948;9.208;2023-05-14T05:55:13;11.50;99.90
18091;DHT22;9172;49.948;9.208;2023-05-14T06:00:20;11.60;99.90
18091;DHT22;9172;49.948;9.208;2023-05-14T06:05:28;11.60;99.90
18091;DHT22;9172;49.948;9.208;2023-05-14T06:07:56;11.60;99.90
18091;DHT22;9172;49.948;9.208;2023-05-14T06:10:26;11.70;99.90
18091;DHT22;9172;49.948;9.208;2023-05-14T06:15:30;11.70;99.90
18091;DHT22;9172;49.948;9.208;2023-05-14T06:20:35;11.70;99.90
18091;DHT22;9172;49.948;9.208;2023-05-14T06:23:04;11.60;99.90
18091;DHT22;9172;49.948;9.208;2023-05-14T06:28:10;11.60;99.90
18091;DHT22;9172;49.948;9.208;2023-05-14T06:30:39;11.60;99.90
18091;DHT22;9172;49.948;9.208;2023-05-14T06:33:08;11.60;99.90
18091;DHT22;9172;49.948;9.208;2023-05-14T06:35:37;11.60;99.90
18091;DHT22;9172;49.948;9.208;2023-05-14T06:38:06;11.60;99.90
18091;DHT22;9172;49.948;9.208;2023-05-14T06:40:35;11.60;99.90
18091;DHT22;9172;49.948;9.208;2023-05-14T06:45:40;11.60;99.90
18091;DHT22;9172;49.948;9.208;2023-05-14T06:48:10;11.60;99.90
18091;DHT22;9172;49.948;9.208;2023-05-14T06:50:39;11.70;99.90
18091;DHT22;9172;49.948;9.208;2023-05-14T06:53:09;11.70;99.90
18091;DHT22;9172;49.948;9.208;2023-05-14T06:55:38;11.90;99.90
18091;DHT22;9172;49.948;9.208;2023-05-14T06:58:06;11.90;99.90
18091;DHT22;9172;49.948;9.208;2023-05-14T07:03:11;12.00;99.90
18091;DHT22;9172;49.948;9.208;2023-05-14T07:08:17;12.20;99.90
18091;DHT22;9172;49.948;9.208;2023-05-14T07:13:24;12.30;99.90
18091;DHT22;9172;49.948;9.208;2023-05-14T07:15:54;12.50;99.90
18091;DHT22;9172;49.948;9.208;2023-05-14T07:18:23;12.60;99.90
18091;DHT22;9172;49.948;9.208;2023-05-14T07:20:53;12.70;99.90
18091;DHT22;9172;49.948;9.208;2023-05-14T07:23:22;12.80;99.90
18091;DHT22;9172;49.948;9.208;2023-05-14T07:25:51;12.90;99.90
18091;DHT22;9172;49.948;9.208;2023-05-14T07:28:20;13.00;99.90
18091;DHT22;9172;49.948;9.208;2023-05-14T07:30:49;13.20;99.90
18091;DHT22;9172;49.948;9.208;2023-05-14T07:33:18;13.40;99.90
18091;DHT22;9172;49.948;9.208;2023-05-14T07:35:48;13.60;99.90
18091;DHT22;9172;49.948;9.208;2023-05-14T07:38:17;13.80;99.90
18091;DHT22;9172;49.948;9.208;2023-05-14T07:40:47;14.00;99.90
18091;DHT22;9172;49.948;9.208;2023-05-14T07:43:16;14.10;99.90
18091;DHT22;9172;49.948;9.208;2023-05-14T07:45:45;14.10;99.90
18091;DHT22;9172;49.948;9.208;2023-05-14T07:48:14;14.20;99.90
18091;DHT22;9172;49.948;9.208;2023-05-14T07:50:44;14.20;99.90
18091;DHT22;9172;49.948;9.208;2023-05-14T07:53:13;14.20;99.90
18091;DHT22;9172;49.948;9.208;2023-05-14T07:55:43;14.30;99.90
18091;DHT22;9172;49.948;9.208;2023-05-14T07:58:11;14.50;99.90
18091;DHT22;9172;49.948;9.208;2023-05-14T08:00:40;14.60;99.90
18091;DHT22;9172;49.948;9.208;2023-05-14T08:03:10;14.80;99.90
18091;DHT22;9172;49.948;9.208;2023-05-14T08:05:42;15.00;99.90
18091;DHT22;9172;49.948;9.208;2023-05-14T08:08:11;15.20;99.90
18091;DHT22;9172;49.948;9.208;2023-05-14T08:10:41;15.40;99.90
18091;DHT22;9172;49.948;9.208;2023-05-14T08:13:09;15.60;99.90
18091;DHT22;9172;49.948;9.208;2023-05-14T08:15:39;15.70;99.90
18091;DHT22;9172;49.948;9.208;2023-05-14T08:18:07;15.80;99.90
18091;DHT22;9172;49.948;9.208;2023-05-14T08:20:37;15.70;99.90
18091;DHT22;9172;49.948;9.208;2023-05-14T08:23:07;15.70;99.90
18091;DHT22;9172;49.948;9.208;2023-05-14T08:25:37;15.40;99.90
18091;DHT22;9172;49.948;9.208;2023-05-14T08:28:06;15.40;99.90
18091;DHT22;9172;49.948;9.208;2023-05-14T08:30:34;15.40;99.90
18091;DHT22;9172;49.948;9.208;2023-05-14T08:33:03;15.50;99.90
18091;DHT22;9172;49.948;9.208;2023-05-14T08:35:34;15.50;99.90
18091;DHT22;9172;49.948;9.208;2023-05-14T08:38:02;15.40;99.90
18091;DHT22;9172;49.948;9.208;2023-05-14T08:40:31;15.40;99.90
18091;DHT22;9172;49.948;9.208;2023-05-14T08:43:00;15.50;99.90
18091;DHT22;9172;49.948;9.208;2023-05-14T08:45:31;15.60;99.90
18091;DHT22;9172;49.948;9.208;2023-05-14T08:48:03;15.70;99.90
18091;DHT22;9172;49.948;9.208;2023-05-14T08:50:35;15.80;99.90
18091;DHT22;9172;49.948;9.208;2023-05-14T08:53:03;15.70;99.90
18091;DHT22;9172;49.948;9.208;2023-05-14T08:55:33;15.60;99.90
18091;DHT22;9172;49.948;9.208;2023-05-14T08:58:02;15.60;99.90
18091;DHT22;9172;49.948;9.208;2023-05-14T09:00:32;15.50;99.90
18091;DHT22;9172;49.948;9.208;2023-05-14T09:03:01;15.40;99.90
18091;DHT22;9172;49.948;9.208;2023-05-14T09:05:32;15.40;99.90
18091;DHT22;9172;49.948;9.208;2023-05-14T09:08:01;15.50;99.90
18091;DHT22;9172;49.948;9.208;2023-05-14T09:10:29;15.60;99.90
18091;DHT22;9172;49.948;9.208;2023-05-14T09:12:58;15.60;99.90
18091;DHT22;9172;49.948;9.208;2023-05-14T09:15:28;15.60;99.90
18091;DHT22;9172;49.948;9.208;2023-05-14T09:17:59;15.60;99.90
18091;DHT22;9172;49.948;9.208;2023-05-14T09:20:28;15.70;99.90
18091;DHT22;9172;49.948;9.208;2023-05-14T09:22:57;15.60;99.90
18091;DHT22;9172;49.948;9.208;2023-05-14T09:25:30;15.60;99.90
18091;DHT22;9172;49.948;9.208;2023-05-14T09:27:59;15.60;99.90
18091;DHT22;9172;49.948;9.208;2023-05-14T09:30:29;15.60;99.90
18091;DHT22;9172;49.948;9.208;2023-05-14T09:33:00;15.60;99.90
18091;DHT22;9172;49.948;9.208;2023-05-14T09:35:30;15.60;99.90
18091;DHT22;9172;49.948;9.208;2023-05-14T09:38:00;15.60;99.90
18091;DHT22;9172;49.948;9.208;2023-05-14T09:40:29;15.60;99.90
18091;DHT22;9172;49.948;9.208;2023-05-14T09:42:57;15.50;99.90
18091;DHT22;9172;49.948;9.208;2023-05-14T09:45:30;15.50;99.90
18091;DHT22;9172;49.948;9.208;2023-05-14T09:48:00;15.50;99.90
18091;DHT22;9172;49.948;9.208;2023-05-14T09:50:29;15.60;99.90
18091;DHT22;9172;49.948;9.208;2023-05-14T09:52:59;15.60;99.90
18091;DHT22;9172;49.948;9.208;2023-05-14T09:55:29;15.60;99.90
18091;DHT22;9172;49.948;9.208;2023-05-14T09:57:59;15.70;99.90
18091;DHT22;9172;49.948;9.208;2023-05-14T10:00:30;15.80;99.90
18091;DHT22;9172;49.948;9.208;2023-05-14T10:02:59;15.80;99.90
18091;DHT22;9172;49.948;9.208;2023-05-14T10:05:29;15.90;99.90
18091;DHT22;9172;49.948;9.208;2023-05-14T10:07:59;15.90;99.90
18091;DHT22;9172;49.948;9.208;2023-05-14T10:10:29;16.00;99.90
18091;DHT22;9172;49.948;9.208;2023-05-14T10:13:02;16.00;99.90
18091;DHT22;9172;49.948;9.208;2023-05-14T10:15:34;16.00;99.90
18091;DHT22;9172;49.948;9.208;2023-05-14T10:18:06;15.90;99.90
18091;DHT22;9172;49.948;9.208;2023-05-14T10:20:37;15.90;99.90
18091;DHT22;9172;49.948;9.208;2023-05-14T10:23:06;15.90;99.90
18091;DHT22;9172;49.948;9.208;2023-05-14T10:25:37;15.90;99.90
18091;DHT22;9172;49.948;9.208;2023-05-14T10:28:06;15.80;99.90
18091;DHT22;9172;49.948;9.208;2023-05-14T10:30:35;15.80;99.90
18091;DHT22;9172;49.948;9.208;2023-05-14T10:33:06;15.80;99.90
18091;DHT22;9172;49.948;9.208;2023-05-14T10:35:55;15.80;99.90
18091;DHT22;9172;49.948;9.208;2023-05-14T10:38:26;15.80;99.90
18091;DHT22;9172;49.948;9.208;2023-05-14T10:41:00;15.80;99.90
18091;DHT22;9172;49.948;9.208;2023-05-14T10:43:30;15.90;99.90
18091;DHT22;9172;49.948;9.208;2023-05-14T10:45:59;15.90;99.90
18091;DHT22;9172;49.948;9.208;2023-05-14T10:48:29;15.90;99.90
18091;DHT22;9172;49.948;9.208;2023-05-14T10:50:59;15.90;99.90
18091;DHT22;9172;49.948;9.208;2023-05-14T10:53:34;15.90;99.90
18091;DHT22;9172;49.948;9.208;2023-05-14T10:56:05;15.90;99.90
18091;DHT22;9172;49.948;9.208;2023-05-14T10:58:36;15.90;99.90
18091;DHT22;9172;49.948;9.208;2023-05-14T11:01:06;15.80;99.90
18091;DHT22;9172;49.948;9.208;2023-05-14T11:03:40;15.80;99.90
18091;DHT22;9172;49.948;9.208;2023-05-14T11:06:11;15.80;99.90
18091;DHT22;9172;49.948;9.208;2023-05-14T11:08:41;15.90;99.90
18091;DHT22;9172;49.948;9.208;2023-05-14T11:11:10;16.00;99.90
18091;DHT22;9172;49.948;9.208;2023-05-14T11:13:41;16.10;99.90
18091;DHT22;9172;49.948;9.208;2023-05-14T11:16:10;16.20;99.90
18091;DHT22;9172;49.948;9.208;2023-05-14T11:18:41;16.30;99.90
18091;DHT22;9172;49.948;9.208;2023-05-14T11:21:10;16.30;99.90
18091;DHT22;9172;49.948;9.208;2023-05-14T11:23:40;16.30;99.90
18091;DHT22;9172;49.948;9.208;2023-05-14T11:26:08;16.30;99.90
18091;DHT22;9172;49.948;9.208;2023-05-14T11:28:39;16.40;99.90
18091;DHT22;9172;49.948;9.208;2023-05-14T11:31:09;16.50;99.90
18091;DHT22;9172;49.948;9.208;2023-05-14T11:33:39;16.50;99.90
18091;DHT22;9172;49.948;9.208;2023-05-14T11:36:10;16.60;99.90
18091;DHT22;9172;49.948;9.208;2023-05-14T11:38:46;16.60;99.90
18091;DHT22;9172;49.948;9.208;2023-05-14T11:41:16;16.70;99.90
18091;DHT22;9172;49.948;9.208;2023-05-14T11:43:48;16.70;99.90
18091;DHT22;9172;49.948;9.208;2023-05-14T11:46:17;16.80;99.90
18091;DHT22;9172;49.948;9.208;2023-05-14T11:48:46;16.80;99.90
18091;DHT22;9172;49.948;9.208;2023-05-14T11:51:16;16.90;99.90
18091;DHT22;9172;49.948;9.208;2023-05-14T11:53:46;16.90;99.90
18091;DHT22;9172;49.948;9.208;2023-05-14T11:56:15;16.90;99.90
18091;DHT22;9172;49.948;9.208;2023-05-14T11:58:48;17.00;99.90
18091;DHT22;9172;49.948;9.208;2023-05-14T12:01:19;17.00;99.90
18091;DHT22;9172;49.948;9.208;2023-05-14T12:03:47;17.10;99.90
18091;DHT22;9172;49.948;9.208;2023-05-14T12:06:18;17.20;99.90
18091;DHT22;9172;49.948;9.208;2023-05-14T12:08:47;17.20;99.90
18091;DHT22;9172;49.948;9.208;2023-05-14T12:11:19;17.10;99.90
18091;DHT22;9172;49.948;9.208;2023-05-14T12:13:48;17.10;99.90
18091;DHT22;9172;49.948;9.208;2023-05-14T12:16:19;17.10;99.90
18091;DHT22;9172;49.948;9.208;2023-05-14T12:18:47;17.20;99.90
18091;DHT22;9172;49.948;9.208;2023-05-14T12:21:17;17.40;99.90
18091;DHT22;9172;49.948;9.208;2023-05-14T12:23:46;17.50;99.90
18091;DHT22;9172;49.948;9.208;2023-05-14T12:26:16;17.50;99.90
18091;DHT22;9172;49.948;9.208;2023-05-14T12:28:47;17.40;99.90
18091;DHT22;9172;49.948;9.208;2023-05-14T12:31:16;17.40;99.90
18091;DHT22;9172;49.948;9.208;2023-05-14T12:33:45;17.30;99.90
18091;DHT22;9172;49.948;9.208;2023-05-14T12:36:14;17.30;99.90
18091;DHT22;9172;49.948;9.208;2023-05-14T12:38:44;17.30;99.90
18091;DHT22;9172;49.948;9.208;2023-05-14T12:41:14;17.30;99.90
18091;DHT22;9172;49.948;9.208;2023-05-14T12:43:44;17.30;99.90
18091;DHT22;9172;49.948;9.208;2023-05-14T12:46:16;17.20;99.90
18091;DHT22;9172;49.948;9.208;2023-05-14T12:48:44;17.20;99.90
18091;DHT22;9172;49.948;9.208;2023-05-14T12:51:13;17.20;99.90
18091;DHT22;9172;49.948;9.208;2023-05-14T12:53:42;17.20;99.90
18091;DHT22;9172;49.948;9.208;2023-05-14T12:56:11;17.20;99.90
18091;DHT22;9172;49.948;9.208;2023-05-14T12:58:40;17.20;99.90
18091;DHT22;9172;49.948;9.208;2023-05-14T13:01:09;17.20;99.90
18091;DHT22;9172;49.948;9.208;2023-05-14T13:03:38;17.20;99.90
18091;DHT22;9172;49.948;9.208;2023-05-14T13:06:08;17.30;99.90
18091;DHT22;9172;49.948;9.208;2023-05-14T13:08:38;17.30;99.90
18091;DHT22;9172;49.948;9.208;2023-05-14T13:11:07;17.30;99.90
18091;DHT22;9172;49.948;9.208;2023-05-14T13:13:37;17.30;99.90
18091;DHT22;9172;49.948;9.208;2023-05-14T13:16:06;17.30;99.90
18091;DHT22;9172;49.948;9.208;2023-05-14T13:18:36;17.30;99.90
18091;DHT22;9172;49.948;9.208;2023-05-14T13:21:04;17.40;99.90
18091;DHT22;9172;49.948;9.208;2023-05-14T13:23:34;17.40;99.90
18091;DHT22;9172;49.948;9.208;2023-05-14T13:26:03;17.40;99.90
18091;DHT22;9172;49.948;9.208;2023-05-14T13:31:11;17.50;99.90
18091;DHT22;9172;49.948;9.208;2023-05-14T13:33:42;17.60;99.90
18091;DHT22;9172;49.948;9.208;2023-05-14T13:36:13;17.70;99.90
18091;DHT22;9172;49.948;9.208;2023-05-14T13:38:43;17.70;99.90
18091;DHT22;9172;49.948;9.208;2023-05-14T13:41:12;17.70;99.90
18091;DHT22;9172;49.948;9.208;2023-05-14T13:43:41;17.70;99.90
18091;DHT22;9172;49.948;9.208;2023-05-14T13:46:10;17.70;99.90
18091;DHT22;9172;49.948;9.208;2023-05-14T13:48:39;17.70;99.90
18091;DHT22;9172;49.948;9.208;2023-05-14T13:51:09;17.70;99.90
18091;DHT22;9172;49.948;9.208;2023-05-14T13:53:37;17.70;99.90
18091;DHT22;9172;49.948;9.208;2023-05-14T13:56:09;17.80;99.90
18091;DHT22;9172;49.948;9.208;2023-05-14T13:58:38;17.80;99.90
18091;DHT22;9172;49.948;9.208;2023-05-14T14:01:08;17.90;99.90
18091;DHT22;9172;49.948;9.208;2023-05-14T14:03:38;18.00;99.90
18091;DHT22;9172;49.948;9.208;2023-05-14T14:06:07;18.10;99.90
18091;DHT22;9172;49.948;9.208;2023-05-14T14:11:13;18.20;99.90
18091;DHT22;9172;49.948;9.208;2023-05-14T14:13:45;18.20;99.90
18091;DHT22;9172;49.948;9.208;2023-05-14T14:16:13;18.30;99.90
18091;DHT22;9172;49.948;9.208;2023-05-14T14:18:44;18.20;99.90
18091;DHT22;9172;49.948;9.208;2023-05-14T14:21:13;18.30;99.90
18091;DHT22;9172;49.948;9.208;2023-05-14T14:23:44;18.30;99.90
18091;DHT22;9172;49.948;9.208;2023-05-14T14:28:51;18.10;99.90
18091;DHT22;9172;49.948;9.208;2023-05-14T14:31:20;18.20;99.90
18091;DHT22;9172;49.948;9.208;2023-05-14T14:33:50;18.20;99.90
18091;DHT22;9172;49.948;9.208;2023-05-14T14:36:18;18.30;99.90
18091;DHT22;9172;49.948;9.208;2023-05-14T14:38:47;18.50;99.90
18091;DHT22;9172;49.948;9.208;2023-05-14T14:41:15;18.60;99.90
18091;DHT22;9172;49.948;9.208;2023-05-14T14:43:46;18.50;99.90
18091;DHT22;9172;49.948;9.208;2023-05-14T14:46:16;18.50;99.90
18091;DHT22;9172;49.948;9.208;2023-05-14T14:48:48;18.50;99.90
18091;DHT22;9172;49.948;9.208;2023-05-14T14:51:16;18.50;99.90
18091;DHT22;9172;49.948;9.208;2023-05-14T14:53:46;18.60;99.90
18091;DHT22;9172;49.948;9.208;2023-05-14T14:56:14;18.70;99.90
18091;DHT22;9172;49.948;9.208;2023-05-14T14:58:44;18.90;99.90
18091;DHT22;9172;49.948;9.208;2023-05-14T15:01:12;18.90;99.90
18091;DHT22;9172;49.948;9.208;2023-05-14T15:03:41;18.90;99.90
18091;DHT22;9172;49.948;9.208;2023-05-14T15:06:11;18.80;99.90
18091;DHT22;9172;49.948;9.208;2023-05-14T15:08:41;18.70;99.90
18091;DHT22;9172;49.948;9.208;2023-05-14T15:11:09;18.70;99.90
18091;DHT22;9172;49.948;9.208;2023-05-14T15:13:38;18.60;99.90
18091;DHT22;9172;49.948;9.208;2023-05-14T15:16:08;18.60;99.90
18091;DHT22;9172;49.948;9.208;2023-05-14T15:18:37;18.60;99.90
18091;DHT22;9172;49.948;9.208;2023-05-14T15:21:06;18.60;99.90
18091;DHT22;9172;49.948;9.208;2023-05-14T15:23:36;18.60;99.90
18091;DHT22;9172;49.948;9.208;2023-05-14T15:26:05;18.60;99.90
18091;DHT22;9172;49.948;9.208;2023-05-14T15:28:33;18.70;99.90
18091;DHT22;9172;49.948;9.208;2023-05-14T15:31:03;18.70;99.90
18091;DHT22;9172;49.948;9.208;2023-05-14T15:33:32;18.80;99.90
18091;DHT22;9172;49.948;9.208;2023-05-14T15:38:39;18.80;99.90
18091;DHT22;9172;49.948;9.208;2023-05-14T15:41:08;18.90;99.90
18091;DHT22;9172;49.948;9.208;2023-05-14T15:43:37;18.80;99.90
18091;DHT22;9172;49.948;9.208;2023-05-14T15:46:05;18.90;99.90
18091;DHT22;9172;49.948;9.208;2023-05-14T15:48:34;18.90;99.90
18091;DHT22;9172;49.948;9.208;2023-05-14T15:53:41;19.00;99.90
18091;DHT22;9172;49.948;9.208;2023-05-14T15:56:10;19.00;99.90
18091;DHT22;9172;49.948;9.208;2023-05-14T15:58:38;18.90;99.90
18091;DHT22;9172;49.948;9.208;2023-05-14T16:01:07;18.90;99.90
18091;DHT22;9172;49.948;9.208;2023-05-14T16:03:37;18.90;99.90
18091;DHT22;9172;49.948;9.208;2023-05-14T16:06:06;18.90;99.90
18091;DHT22;9172;49.948;9.208;2023-05-14T16:08:35;18.90;99.90
18091;DHT22;9172;49.948;9.208;2023-05-14T16:11:04;18.80;99.90
18091;DHT22;9172;49.948;9.208;2023-05-14T16:13:34;18.70;99.90
18091;DHT22;9172;49.948;9.208;2023-05-14T16:16:05;18.70;99.90
18091;DHT22;9172;49.948;9.208;2023-05-14T16:18:35;18.50;99.90
18091;DHT22;9172;49.948;9.208;2023-05-14T16:21:05;18.20;99.90
18091;DHT22;9172;49.948;9.208;2023-05-14T16:23:33;18.00;99.90
18091;DHT22;9172;49.948;9.208;2023-05-14T16:26:02;17.70;99.90
18091;DHT22;9172;49.948;9.208;2023-05-14T16:28:32;17.60;99.90
18091;DHT22;9172;49.948;9.208;2023-05-14T16:31:02;17.40;99.90
18091;DHT22;9172;49.948;9.208;2023-05-14T16:33:31;17.30;99.90
18091;DHT22;9172;49.948;9.208;2023-05-14T16:35:59;17.30;99.90
18091;DHT22;9172;49.948;9.208;2023-05-14T16:38:28;17.20;99.90
18091;DHT22;9172;49.948;9.208;2023-05-14T16:40:58;17.10;99.90